sensor_id;sensor_type;location;lat;lon;timestamp;P1;durP1;ratioP1;P2;durP2;ratioP2
48034;SDS011;33812;46.480;6.834;2023-06-14T00:03:44;8.52;;;3.22;;
48034;SDS011;33812;46.480;6.834;2023-06-14T00:07:47;4.88;;;3.05;;
48034;SDS011;33812;46.480;6.834;2023-06-14T00:11:50;6.68;;;3.08;;
48034;SDS011;33812;46.480;6.834;2023-06-14T00:15:52;4.78;;;2.95;;
48034;SDS011;33812;46.480;6.834;2023-06-14T00:19:55;5.75;;;3.47;;
48034;SDS011;33812;46.480;6.834;2023-06-14T00:23:57;6.78;;;3.25;;
48034;SDS011;33812;46.480;6.834;2023-06-14T00:28:02;4.43;;;3.20;;
48034;SDS011;33812;46.480;6.834;2023-06-14T00:32:04;3.92;;;2.90;;
48034;SDS011;33812;46.480;6.834;2023-06-14T00:36:06;7.28;;;3.38;;
48034;SDS011;33812;46.480;6.834;2023-06-14T00:40:08;4.72;;;3.13;;
48034;SDS011;33812;46.480;6.834;2023-06-14T00:44:11;6.75;;;3.40;;
48034;SDS011;33812;46.480;6.834;2023-06-14T00:48:17;7.43;;;3.75;;
48034;SDS011;33812;46.480;6.834;2023-06-14T00:52:20;7.82;;;2.83;;
48034;SDS011;33812;46.480;6.834;2023-06-14T00:56:22;7.00;;;3.20;;
48034;SDS011;33812;46.480;6.834;2023-06-14T01:00:27;6.13;;;3.70;;
48034;SDS011;33812;46.480;6.834;2023-06-14T01:04:29;6.18;;;4.65;;
48034;SDS011;33812;46.480;6.834;2023-06-14T01:08:31;9.18;;;4.10;;
48034;SDS011;33812;46.480;6.834;2023-06-14T01:12:48;8.50;;;4.45;;
48034;SDS011;33812;46.480;6.834;2023-06-14T01:16:59;5.63;;;3.53;;
48034;SDS011;33812;46.480;6.834;2023-06-14T01:21:03;4.22;;;3.20;;
48034;SDS011;33812;46.480;6.834;2023-06-14T01:25:07;6.65;;;3.55;;
48034;SDS011;33812;46.480;6.834;2023-06-14T01:29:09;8.93;;;3.80;;
48034;SDS011;33812;46.480;6.834;2023-06-14T01:33:11;4.30;;;3.22;;
48034;SDS011;33812;46.480;6.834;2023-06-14T01:37:14;7.15;;;4.00;;
48034;SDS011;33812;46.480;6.834;2023-06-14T01:41:19;5.93;;;3.45;;
48034;SDS011;33812;46.480;6.834;2023-06-14T01:45:22;9.60;;;3.38;;
48034;SDS011;33812;46.480;6.834;2023-06-14T01:49:25;6.22;;;3.65;;
48034;SDS011;33812;46.480;6.834;2023-06-14T01:53:27;5.13;;;3.70;;
48034;SDS011;33812;46.480;6.834;2023-06-14T01:57:30;5.22;;;2.95;;
48034;SDS011;33812;46.480;6.834;2023-06-14T02:01:32;5.25;;;3.42;;
48034;SDS011;33812;46.480;6.834;2023-06-14T02:05:35;8.48;;;3.90;;
48034;SDS011;33812;46.480;6.834;2023-06-14T02:09:39;5.50;;;4.00;;
48034;SDS011;33812;46.480;6.834;2023-06-14T02:13:43;6.35;;;3.60;;
48034;SDS011;33812;46.480;6.834;2023-06-14T02:17:47;13.60;;;3.67;;
48034;SDS011;33812;46.480;6.834;2023-06-14T02:21:49;5.63;;;3.30;;
48034;SDS011;33812;46.480;6.834;2023-06-14T02:25:51;5.50;;;3.22;;
48034;SDS011;33812;46.480;6.834;2023-06-14T02:29:54;7.00;;;3.90;;
48034;SDS011;33812;46.480;6.834;2023-06-14T02:33:56;4.65;;;3.55;;
48034;SDS011;33812;46.480;6.834;2023-06-14T02:37:57;8.27;;;3.15;;
48034;SDS011;33812;46.480;6.834;2023-06-14T02:41:59;6.22;;;3.70;;
48034;SDS011;33812;46.480;6.834;2023-06-14T02:46:02;6.70;;;3.42;;
48034;SDS011;33812;46.480;6.834;2023-06-14T02:50:05;4.32;;;3.53;;
48034;SDS011;33812;46.480;6.834;2023-06-14T02:54:09;8.23;;;4.50;;
48034;SDS011;33812;46.480;6.834;2023-06-14T02:58:11;6.97;;;3.88;;
48034;SDS011;33812;46.480;6.834;2023-06-14T03:02:14;6.55;;;4.03;;
48034;SDS011;33812;46.480;6.834;2023-06-14T03:06:16;9.38;;;3.63;;
48034;SDS011;33812;46.480;6.834;2023-06-14T03:10:18;6.50;;;3.45;;
48034;SDS011;33812;46.480;6.834;2023-06-14T03:14:21;8.40;;;3.60;;
48034;SDS011;33812;46.480;6.834;2023-06-14T03:18:27;4.97;;;3.58;;
48034;SDS011;33812;46.480;6.834;2023-06-14T03:22:28;5.78;;;3.42;;
48034;SDS011;33812;46.480;6.834;2023-06-14T03:26:30;9.90;;;4.03;;
48034;SDS011;33812;46.480;6.834;2023-06-14T03:30:34;8.32;;;4.28;;
48034;SDS011;33812;46.480;6.834;2023-06-14T03:34:37;5.68;;;3.38;;
48034;SDS011;33812;46.480;6.834;2023-06-14T03:38:39;6.47;;;4.30;;
48034;SDS011;33812;46.480;6.834;2023-06-14T03:42:41;6.40;;;3.92;;
48034;SDS011;33812;46.480;6.834;2023-06-14T03:46:43;9.85;;;3.17;;
48034;SDS011;33812;46.480;6.834;2023-06-14T03:50:46;12.98;;;3.70;;
48034;SDS011;33812;46.480;6.834;2023-06-14T03:54:48;5.40;;;3.15;;
48034;SDS011;33812;46.480;6.834;2023-06-14T03:58:50;8.30;;;3.40;;
48034;SDS011;33812;46.480;6.834;2023-06-14T04:02:52;5.53;;;3.42;;
48034;SDS011;33812;46.480;6.834;2023-06-14T04:06:56;7.03;;;3.20;;
48034;SDS011;33812;46.480;6.834;2023-06-14T04:10:58;5.90;;;3.40;;
48034;SDS011;33812;46.480;6.834;2023-06-14T04:15:00;4.03;;;3.22;;
48034;SDS011;33812;46.480;6.834;2023-06-14T04:19:03;6.93;;;3.50;;
48034;SDS011;33812;46.480;6.834;2023-06-14T04:23:13;5.40;;;3.15;;
48034;SDS011;33812;46.480;6.834;2023-06-14T04:27:15;5.90;;;3.35;;
48034;SDS011;33812;46.480;6.834;2023-06-14T04:31:21;5.95;;;3.35;;
48034;SDS011;33812;46.480;6.834;2023-06-14T04:35:25;5.50;;;3.50;;
48034;SDS011;33812;46.480;6.834;2023-06-14T04:39:30;8.85;;;3.03;;
48034;SDS011;33812;46.480;6.834;2023-06-14T04:43:32;17.52;;;3.03;;
48034;SDS011;33812;46.480;6.834;2023-06-14T04:47:38;4.72;;;3.00;;
48034;SDS011;33812;46.480;6.834;2023-06-14T04:51:40;7.30;;;3.05;;
48034;SDS011;33812;46.480;6.834;2023-06-14T04:55:44;4.60;;;2.90;;
48034;SDS011;33812;46.480;6.834;2023-06-14T04:59:46;9.30;;;3.40;;
48034;SDS011;33812;46.480;6.834;2023-06-14T05:03:48;8.48;;;3.25;;
48034;SDS011;33812;46.480;6.834;2023-06-14T05:07:51;12.40;;;3.85;;
48034;SDS011;33812;46.480;6.834;2023-06-14T05:11:54;8.10;;;3.78;;
48034;SDS011;33812;46.480;6.834;2023-06-14T05:15:56;8.50;;;3.35;;
48034;SDS011;33812;46.480;6.834;2023-06-14T05:19:58;7.68;;;3.20;;
48034;SDS011;33812;46.480;6.834;2023-06-14T05:24:01;8.02;;;3.75;;
48034;SDS011;33812;46.480;6.834;2023-06-14T05:28:04;9.50;;;3.65;;
48034;SDS011;33812;46.480;6.834;2023-06-14T05:32:06;11.73;;;3.75;;
48034;SDS011;33812;46.480;6.834;2023-06-14T05:36:08;7.45;;;3.22;;
48034;SDS011;33812;46.480;6.834;2023-06-14T05:40:11;5.20;;;3.92;;
48034;SDS011;33812;46.480;6.834;2023-06-14T05:44:15;6.85;;;3.97;;
48034;SDS011;33812;46.480;6.834;2023-06-14T05:48:16;6.72;;;3.50;;
48034;SDS011;33812;46.480;6.834;2023-06-14T05:52:18;8.55;;;3.60;;
48034;SDS011;33812;46.480;6.834;2023-06-14T05:56:20;13.18;;;3.75;;
48034;SDS011;33812;46.480;6.834;2023-06-14T06:00:23;8.80;;;3.83;;
48034;SDS011;33812;46.480;6.834;2023-06-14T06:04:25;19.45;;;4.25;;
48034;SDS011;33812;46.480;6.834;2023-06-14T06:13:00;6.63;;;3.88;;
48034;SDS011;33812;46.480;6.834;2023-06-14T06:17:02;8.73;;;3.60;;
48034;SDS011;33812;46.480;6.834;2023-06-14T06:21:05;8.32;;;3.78;;
48034;SDS011;33812;46.480;6.834;2023-06-14T06:25:07;7.35;;;4.07;;
48034;SDS011;33812;46.480;6.834;2023-06-14T06:29:11;5.40;;;3.63;;
48034;SDS011;33812;46.480;6.834;2023-06-14T06:33:13;12.15;;;3.75;;
48034;SDS011;33812;46.480;6.834;2023-06-14T06:37:15;4.60;;;3.33;;
48034;SDS011;33812;46.480;6.834;2023-06-14T06:41:19;5.28;;;3.60;;
48034;SDS011;33812;46.480;6.834;2023-06-14T06:45:23;9.02;;;3.90;;
48034;SDS011;33812;46.480;6.834;2023-06-14T06:49:25;9.82;;;3.63;;
48034;SDS011;33812;46.480;6.834;2023-06-14T06:53:26;5.85;;;3.42;;
48034;SDS011;33812;46.480;6.834;2023-06-14T06:57:28;5.47;;;3.60;;
48034;SDS011;33812;46.480;6.834;2023-06-14T07:01:31;7.70;;;3.35;;
48034;SDS011;33812;46.480;6.834;2023-06-14T07:05:34;12.55;;;3.78;;
48034;SDS011;33812;46.480;6.834;2023-06-14T07:09:35;4.47;;;3.22;;
48034;SDS011;33812;46.480;6.834;2023-06-14T07:13:38;7.80;;;3.67;;
48034;SDS011;33812;46.480;6.834;2023-06-14T07:17:41;6.15;;;3.33;;
48034;SDS011;33812;46.480;6.834;2023-06-14T07:21:43;3.53;;;2.75;;
48034;SDS011;33812;46.480;6.834;2023-06-14T07:25:45;3.45;;;3.00;;
48034;SDS011;33812;46.480;6.834;2023-06-14T07:29:47;7.30;;;2.97;;
48034;SDS011;33812;46.480;6.834;2023-06-14T07:33:50;5.65;;;3.42;;
48034;SDS011;33812;46.480;6.834;2023-06-14T07:37:52;4.13;;;2.90;;
48034;SDS011;33812;46.480;6.834;2023-06-14T07:41:54;5.60;;;3.33;;
48034;SDS011;33812;46.480;6.834;2023-06-14T07:45:55;7.55;;;2.88;;
48034;SDS011;33812;46.480;6.834;2023-06-14T07:49:59;4.97;;;3.30;;
48034;SDS011;33812;46.480;6.834;2023-06-14T07:54:03;7.32;;;3.50;;
48034;SDS011;33812;46.480;6.834;2023-06-14T07:58:07;6.97;;;2.80;;
48034;SDS011;33812;46.480;6.834;2023-06-14T08:02:08;7.35;;;3.25;;
48034;SDS011;33812;46.480;6.834;2023-06-14T08:06:12;8.15;;;3.13;;
48034;SDS011;33812;46.480;6.834;2023-06-14T08:10:13;6.65;;;4.07;;
48034;SDS011;33812;46.480;6.834;2023-06-14T08:14:15;6.95;;;3.13;;
48034;SDS011;33812;46.480;6.834;2023-06-14T08:18:17;5.22;;;2.65;;
48034;SDS011;33812;46.480;6.834;2023-06-14T08:22:20;4.75;;;3.15;;
48034;SDS011;33812;46.480;6.834;2023-06-14T08:26:24;4.00;;;2.67;;
48034;SDS011;33812;46.480;6.834;2023-06-14T08:30:29;5.60;;;3.15;;
48034;SDS011;33812;46.480;6.834;2023-06-14T08:34:30;4.25;;;2.72;;
48034;SDS011;33812;46.480;6.834;2023-06-14T08:38:33;7.32;;;3.03;;
48034;SDS011;33812;46.480;6.834;2023-06-14T08:42:35;3.92;;;2.55;;
48034;SDS011;33812;46.480;6.834;2023-06-14T08:46:38;3.50;;;2.70;;
48034;SDS011;33812;46.480;6.834;2023-06-14T08:50:41;3.53;;;2.70;;
48034;SDS011;33812;46.480;6.834;2023-06-14T08:54:44;4.43;;;2.78;;
48034;SDS011;33812;46.480;6.834;2023-06-14T08:58:49;3.22;;;2.63;;
48034;SDS011;33812;46.480;6.834;2023-06-14T09:02:51;6.60;;;3.00;;
48034;SDS011;33812;46.480;6.834;2023-06-14T09:06:58;3.55;;;2.85;;
48034;SDS011;33812;46.480;6.834;2023-06-14T09:11:02;4.07;;;2.92;;
48034;SDS011;33812;46.480;6.834;2023-06-14T09:15:05;5.35;;;2.88;;
48034;SDS011;33812;46.480;6.834;2023-06-14T09:19:08;5.18;;;2.75;;
48034;SDS011;33812;46.480;6.834;2023-06-14T09:23:18;3.47;;;2.50;;
48034;SDS011;33812;46.480;6.834;2023-06-14T09:27:23;3.78;;;2.35;;
48034;SDS011;33812;46.480;6.834;2023-06-14T09:31:26;3.90;;;2.33;;
48034;SDS011;33812;46.480;6.834;2023-06-14T09:35:32;4.70;;;2.78;;
48034;SDS011;33812;46.480;6.834;2023-06-14T09:39:34;4.28;;;2.67;;
48034;SDS011;33812;46.480;6.834;2023-06-14T09:43:37;3.05;;;2.25;;
48034;SDS011;33812;46.480;6.834;2023-06-14T09:47:39;4.23;;;2.67;;
48034;SDS011;33812;46.480;6.834;2023-06-14T09:51:43;2.92;;;2.42;;
48034;SDS011;33812;46.480;6.834;2023-06-14T09:55:46;4.30;;;2.67;;
48034;SDS011;33812;46.480;6.834;2023-06-14T09:59:56;2.97;;;2.38;;
48034;SDS011;33812;46.480;6.834;2023-06-14T10:04:01;3.67;;;2.35;;
48034;SDS011;33812;46.480;6.834;2023-06-14T10:08:07;4.43;;;2.67;;
48034;SDS011;33812;46.480;6.834;2023-06-14T10:12:11;2.38;;;2.17;;
48034;SDS011;33812;46.480;6.834;2023-06-14T10:16:20;5.20;;;2.55;;
48034;SDS011;33812;46.480;6.834;2023-06-14T10:20:28;2.97;;;2.05;;
48034;SDS011;33812;46.480;6.834;2023-06-14T10:24:35;4.47;;;2.60;;
48034;SDS011;33812;46.480;6.834;2023-06-14T10:28:41;3.95;;;2.65;;
48034;SDS011;33812;46.480;6.834;2023-06-14T10:33:05;3.63;;;2.53;;
48034;SDS011;33812;46.480;6.834;2023-06-14T10:37:11;3.03;;;2.45;;
48034;SDS011;33812;46.480;6.834;2023-06-14T10:41:13;3.60;;;2.20;;
48034;SDS011;33812;46.480;6.834;2023-06-14T10:45:18;3.72;;;2.65;;
48034;SDS011;33812;46.480;6.834;2023-06-14T10:49:35;4.13;;;2.08;;
48034;SDS011;33812;46.480;6.834;2023-06-14T10:53:42;3.25;;;2.33;;
48034;SDS011;33812;46.480;6.834;2023-06-14T10:57:44;8.07;;;3.15;;
48034;SDS011;33812;46.480;6.834;2023-06-14T11:01:52;5.93;;;2.17;;
48034;SDS011;33812;46.480;6.834;2023-06-14T11:06:01;3.40;;;2.35;;
48034;SDS011;33812;46.480;6.834;2023-06-14T11:10:17;4.35;;;2.88;;
48034;SDS011;33812;46.480;6.834;2023-06-14T11:14:29;5.47;;;2.65;;
48034;SDS011;33812;46.480;6.834;2023-06-14T11:18:31;2.55;;;2.22;;
48034;SDS011;33812;46.480;6.834;2023-06-14T11:22:39;2.92;;;2.35;;
48034;SDS011;33812;46.480;6.834;2023-06-14T11:26:42;3.13;;;2.35;;
48034;SDS011;33812;46.480;6.834;2023-06-14T11:30:44;3.03;;;2.00;;
48034;SDS011;33812;46.480;6.834;2023-06-14T11:34:46;3.90;;;2.20;;
48034;SDS011;33812;46.480;6.834;2023-06-14T11:38:49;3.97;;;2.33;;
48034;SDS011;33812;46.480;6.834;2023-06-14T11:42:57;3.35;;;2.65;;
48034;SDS011;33812;46.480;6.834;2023-06-14T11:47:03;2.13;;;1.92;;
48034;SDS011;33812;46.480;6.834;2023-06-14T11:51:05;3.35;;;2.50;;
48034;SDS011;33812;46.480;6.834;2023-06-14T11:55:08;3.05;;;2.05;;
48034;SDS011;33812;46.480;6.834;2023-06-14T11:59:11;2.50;;;2.20;;
48034;SDS011;33812;46.480;6.834;2023-06-14T12:03:15;2.43;;;2.00;;
48034;SDS011;33812;46.480;6.834;2023-06-14T12:07:17;7.82;;;2.60;;
48034;SDS011;33812;46.480;6.834;2023-06-14T12:11:21;3.00;;;2.30;;
48034;SDS011;33812;46.480;6.834;2023-06-14T12:15:23;2.92;;;2.20;;
48034;SDS011;33812;46.480;6.834;2023-06-14T12:19:25;3.67;;;2.20;;
48034;SDS011;33812;46.480;6.834;2023-06-14T12:23:27;6.65;;;2.42;;
48034;SDS011;33812;46.480;6.834;2023-06-14T12:27:41;3.47;;;2.60;;
48034;SDS011;33812;46.480;6.834;2023-06-14T12:31:43;2.67;;;2.35;;
48034;SDS011;33812;46.480;6.834;2023-06-14T12:35:45;3.28;;;2.42;;
48034;SDS011;33812;46.480;6.834;2023-06-14T12:39:47;4.05;;;2.40;;
48034;SDS011;33812;46.480;6.834;2023-06-14T12:43:50;4.20;;;2.53;;
48034;SDS011;33812;46.480;6.834;2023-06-14T12:47:51;3.03;;;2.42;;
48034;SDS011;33812;46.480;6.834;2023-06-14T12:51:53;2.53;;;2.20;;
48034;SDS011;33812;46.480;6.834;2023-06-14T12:55:55;3.47;;;2.55;;
48034;SDS011;33812;46.480;6.834;2023-06-14T12:59:59;3.00;;;2.10;;
48034;SDS011;33812;46.480;6.834;2023-06-14T13:04:03;3.30;;;2.15;;
48034;SDS011;33812;46.480;6.834;2023-06-14T13:08:05;4.50;;;2.50;;
48034;SDS011;33812;46.480;6.834;2023-06-14T13:12:09;2.95;;;2.50;;
48034;SDS011;33812;46.480;6.834;2023-06-14T13:16:13;2.65;;;2.30;;
48034;SDS011;33812;46.480;6.834;2023-06-14T13:20:15;4.28;;;2.45;;
48034;SDS011;33812;46.480;6.834;2023-06-14T13:24:17;2.58;;;2.33;;
48034;SDS011;33812;46.480;6.834;2023-06-14T13:28:19;2.88;;;2.17;;
48034;SDS011;33812;46.480;6.834;2023-06-14T13:32:22;2.58;;;1.90;;
48034;SDS011;33812;46.480;6.834;2023-06-14T13:36:25;4.70;;;2.20;;
48034;SDS011;33812;46.480;6.834;2023-06-14T13:40:26;5.53;;;2.25;;
48034;SDS011;33812;46.480;6.834;2023-06-14T13:44:28;3.20;;;1.95;;
48034;SDS011;33812;46.480;6.834;2023-06-14T13:48:31;2.58;;;1.98;;
48034;SDS011;33812;46.480;6.834;2023-06-14T13:52:33;5.60;;;2.30;;
48034;SDS011;33812;46.480;6.834;2023-06-14T13:56:35;2.65;;;2.10;;
48034;SDS011;33812;46.480;6.834;2023-06-14T14:00:38;2.55;;;2.00;;
48034;SDS011;33812;46.480;6.834;2023-06-14T14:04:41;3.58;;;2.25;;
48034;SDS011;33812;46.480;6.834;2023-06-14T14:08:43;2.25;;;2.05;;
48034;SDS011;33812;46.480;6.834;2023-06-14T14:12:45;2.95;;;2.45;;
48034;SDS011;33812;46.480;6.834;2023-06-14T14:16:48;3.47;;;2.22;;
48034;SDS011;33812;46.480;6.834;2023-06-14T14:20:52;2.25;;;1.90;;
48034;SDS011;33812;46.480;6.834;2023-06-14T14:24:54;3.28;;;1.88;;
48034;SDS011;33812;46.480;6.834;2023-06-14T14:28:56;3.83;;;2.30;;
48034;SDS011;33812;46.480;6.834;2023-06-14T14:32:57;3.67;;;2.38;;
48034;SDS011;33812;46.480;6.834;2023-06-14T14:37:02;3.67;;;1.88;;
48034;SDS011;33812;46.480;6.834;2023-06-14T14:41:04;2.55;;;2.20;;
48034;SDS011;33812;46.480;6.834;2023-06-14T14:45:06;3.47;;;2.10;;
48034;SDS011;33812;46.480;6.834;2023-06-14T14:49:08;2.78;;;2.10;;
48034;SDS011;33812;46.480;6.834;2023-06-14T14:53:12;3.75;;;2.28;;
48034;SDS011;33812;46.480;6.834;2023-06-14T14:57:16;2.47;;;2.13;;
48034;SDS011;33812;46.480;6.834;2023-06-14T15:01:18;2.83;;;2.20;;
48034;SDS011;33812;46.480;6.834;2023-06-14T15:05:20;2.85;;;2.53;;
48034;SDS011;33812;46.480;6.834;2023-06-14T15:09:23;2.40;;;2.00;;
48034;SDS011;33812;46.480;6.834;2023-06-14T15:13:25;3.50;;;2.22;;
48034;SDS011;33812;46.480;6.834;2023-06-14T15:17:26;2.80;;;2.10;;
48034;SDS011;33812;46.480;6.834;2023-06-14T15:21:28;2.72;;;2.10;;
48034;SDS011;33812;46.480;6.834;2023-06-14T15:25:31;3.88;;;2.30;;
48034;SDS011;33812;46.480;6.834;2023-06-14T15:29:33;3.85;;;2.30;;
48034;SDS011;33812;46.480;6.834;2023-06-14T15:33:35;3.85;;;2.20;;
48034;SDS011;33812;46.480;6.834;2023-06-14T15:37:37;2.70;;;2.25;;
48034;SDS011;33812;46.480;6.834;2023-06-14T15:41:40;2.45;;;2.08;;
48034;SDS011;33812;46.480;6.834;2023-06-14T15:45:42;2.22;;;1.98;;
48034;SDS011;33812;46.480;6.834;2023-06-14T15:49:45;3.78;;;2.35;;
48034;SDS011;33812;46.480;6.834;2023-06-14T15:53:46;2.22;;;1.80;;
48034;SDS011;33812;46.480;6.834;2023-06-14T15:57:50;2.10;;;1.90;;
48034;SDS011;33812;46.480;6.834;2023-06-14T16:01:51;5.70;;;2.55;;
48034;SDS011;33812;46.480;6.834;2023-06-14T16:05:53;2.75;;;2.10;;
48034;SDS011;33812;46.480;6.834;2023-06-14T16:09:55;7.63;;;2.80;;
48034;SDS011;33812;46.480;6.834;2023-06-14T16:13:58;18.77;;;2.92;;
48034;SDS011;33812;46.480;6.834;2023-06-14T16:18:00;8.20;;;2.20;;
48034;SDS011;33812;46.480;6.834;2023-06-14T16:22:02;8.50;;;2.03;;
48034;SDS011;33812;46.480;6.834;2023-06-14T16:26:04;8.52;;;3.05;;
48034;SDS011;33812;46.480;6.834;2023-06-14T16:30:08;3.83;;;2.13;;
48034;SDS011;33812;46.480;6.834;2023-06-14T16:34:10;3.35;;;1.90;;
48034;SDS011;33812;46.480;6.834;2023-06-14T16:38:12;4.55;;;2.17;;
48034;SDS011;33812;46.480;6.834;2023-06-14T16:42:14;3.65;;;2.05;;
48034;SDS011;33812;46.480;6.834;2023-06-14T16:46:23;7.45;;;3.05;;
48034;SDS011;33812;46.480;6.834;2023-06-14T16:50:29;2.83;;;2.00;;
48034;SDS011;33812;46.480;6.834;2023-06-14T16:54:31;3.25;;;2.20;;
48034;SDS011;33812;46.480;6.834;2023-06-14T16:58:32;7.38;;;3.08;;
48034;SDS011;33812;46.480;6.834;2023-06-14T17:02:36;7.38;;;2.00;;
48034;SDS011;33812;46.480;6.834;2023-06-14T17:06:38;5.45;;;2.05;;
48034;SDS011;33812;46.480;6.834;2023-06-14T17:10:39;4.25;;;2.10;;
48034;SDS011;33812;46.480;6.834;2023-06-14T17:14:44;10.63;;;2.65;;
48034;SDS011;33812;46.480;6.834;2023-06-14T17:18:47;5.43;;;2.10;;
48034;SDS011;33812;46.480;6.834;2023-06-14T17:22:49;9.43;;;2.25;;
48034;SDS011;33812;46.480;6.834;2023-06-14T17:26:51;5.75;;;2.35;;
48034;SDS011;33812;46.480;6.834;2023-06-14T17:30:54;7.70;;;2.20;;
48034;SDS011;33812;46.480;6.834;2023-06-14T17:34:58;7.68;;;2.42;;
48034;SDS011;33812;46.480;6.834;2023-06-14T17:38:59;6.95;;;2.00;;
48034;SDS011;33812;46.480;6.834;2023-06-14T17:43:02;2.63;;;1.95;;
48034;SDS011;33812;46.480;6.834;2023-06-14T17:47:04;9.82;;;2.53;;
48034;SDS011;33812;46.480;6.834;2023-06-14T17:51:14;3.20;;;2.20;;
48034;SDS011;33812;46.480;6.834;2023-06-14T17:55:17;4.63;;;2.15;;
48034;SDS011;33812;46.480;6.834;2023-06-14T17:59:19;4.72;;;2.15;;
48034;SDS011;33812;46.480;6.834;2023-06-14T18:03:21;8.82;;;2.38;;
48034;SDS011;33812;46.480;6.834;2023-06-14T18:07:24;3.60;;;1.80;;
48034;SDS011;33812;46.480;6.834;2023-06-14T18:11:29;3.00;;;1.77;;
48034;SDS011;33812;46.480;6.834;2023-06-14T18:15:33;3.65;;;2.05;;
48034;SDS011;33812;46.480;6.834;2023-06-14T18:19:36;5.63;;;2.27;;
48034;SDS011;33812;46.480;6.834;2023-06-14T18:23:39;2.58;;;1.85;;
48034;SDS011;33812;46.480;6.834;2023-06-14T18:27:43;9.90;;;2.60;;
48034;SDS011;33812;46.480;6.834;2023-06-14T18:31:45;22.23;;;3.60;;
48034;SDS011;33812;46.480;6.834;2023-06-14T18:35:47;14.98;;;2.17;;
48034;SDS011;33812;46.480;6.834;2023-06-14T18:39:50;4.32;;;2.20;;
48034;SDS011;33812;46.480;6.834;2023-06-14T18:43:52;10.85;;;2.92;;
48034;SDS011;33812;46.480;6.834;2023-06-14T18:47:54;11.10;;;2.28;;
48034;SDS011;33812;46.480;6.834;2023-06-14T18:51:56;4.45;;;2.33;;
48034;SDS011;33812;46.480;6.834;2023-06-14T18:56:01;4.03;;;1.95;;
48034;SDS011;33812;46.480;6.834;2023-06-14T19:00:04;4.25;;;2.85;;
48034;SDS011;33812;46.480;6.834;2023-06-14T19:04:06;5.45;;;2.05;;
48034;SDS011;33812;46.480;6.834;2023-06-14T19:08:08;5.60;;;2.30;;
48034;SDS011;33812;46.480;6.834;2023-06-14T19:12:13;3.65;;;2.05;;
48034;SDS011;33812;46.480;6.834;2023-06-14T19:16:15;9.02;;;2.55;;
48034;SDS011;33812;46.480;6.834;2023-06-14T19:20:16;4.18;;;2.17;;
48034;SDS011;33812;46.480;6.834;2023-06-14T19:24:18;4.10;;;2.33;;
48034;SDS011;33812;46.480;6.834;2023-06-14T19:28:21;9.27;;;2.45;;
48034;SDS011;33812;46.480;6.834;2023-06-14T19:32:25;9.30;;;2.90;;
48034;SDS011;33812;46.480;6.834;2023-06-14T19:36:27;5.32;;;2.38;;
48034;SDS011;33812;46.480;6.834;2023-06-14T19:40:29;10.90;;;3.00;;
48034;SDS011;33812;46.480;6.834;2023-06-14T19:44:32;12.75;;;3.10;;
48034;SDS011;33812;46.480;6.834;2023-06-14T19:48:34;16.10;;;2.92;;
48034;SDS011;33812;46.480;6.834;2023-06-14T19:52:36;10.20;;;2.92;;
48034;SDS011;33812;46.480;6.834;2023-06-14T19:56:37;11.73;;;2.72;;
48034;SDS011;33812;46.480;6.834;2023-06-14T20:00:40;6.40;;;2.53;;
48034;SDS011;33812;46.480;6.834;2023-06-14T20:04:42;6.50;;;2.50;;
48034;SDS011;33812;46.480;6.834;2023-06-14T20:08:44;7.85;;;2.58;;
48034;SDS011;33812;46.480;6.834;2023-06-14T20:12:46;4.57;;;2.92;;
48034;SDS011;33812;46.480;6.834;2023-06-14T20:16:49;5.85;;;2.45;;
48034;SDS011;33812;46.480;6.834;2023-06-14T20:20:51;3.75;;;2.40;;
48034;SDS011;33812;46.480;6.834;2023-06-14T20:24:54;7.20;;;2.50;;
48034;SDS011;33812;46.480;6.834;2023-06-14T20:28:56;10.02;;;2.97;;
48034;SDS011;33812;46.480;6.834;2023-06-14T20:32:59;5.40;;;2.75;;
48034;SDS011;33812;46.480;6.834;2023-06-14T20:37:01;8.95;;;3.10;;
48034;SDS011;33812;46.480;6.834;2023-06-14T20:41:03;4.22;;;3.08;;
48034;SDS011;33812;46.480;6.834;2023-06-14T20:45:05;7.15;;;3.05;;
48034;SDS011;33812;46.480;6.834;2023-06-14T20:49:09;4.88;;;2.67;;
48034;SDS011;33812;46.480;6.834;2023-06-14T20:53:11;7.38;;;3.47;;
48034;SDS011;33812;46.480;6.834;2023-06-14T20:57:12;4.78;;;2.70;;
48034;SDS011;33812;46.480;6.834;2023-06-14T21:01:17;6.50;;;2.85;;
48034;SDS011;33812;46.480;6.834;2023-06-14T21:05:21;4.15;;;2.92;;
48034;SDS011;33812;46.480;6.834;2023-06-14T21:09:23;4.70;;;2.80;;
48034;SDS011;33812;46.480;6.834;2023-06-14T21:13:25;3.85;;;2.50;;
48034;SDS011;33812;46.480;6.834;2023-06-14T21:17:26;3.08;;;2.45;;
48034;SDS011;33812;46.480;6.834;2023-06-14T21:21:29;6.25;;;2.70;;
48034;SDS011;33812;46.480;6.834;2023-06-14T21:25:32;7.93;;;2.90;;
48034;SDS011;33812;46.480;6.834;2023-06-14T21:29:35;8.35;;;3.08;;
48034;SDS011;33812;46.480;6.834;2023-06-14T21:33:37;10.45;;;2.83;;
48034;SDS011;33812;46.480;6.834;2023-06-14T21:37:40;5.15;;;2.88;;
48034;SDS011;33812;46.480;6.834;2023-06-14T21:41:42;7.90;;;2.70;;
48034;SDS011;33812;46.480;6.834;2023-06-14T21:45:43;5.18;;;3.55;;
48034;SDS011;33812;46.480;6.834;2023-06-14T21:49:45;6.50;;;3.00;;
48034;SDS011;33812;46.480;6.834;2023-06-14T21:53:48;5.28;;;3.03;;
48034;SDS011;33812;46.480;6.834;2023-06-14T21:57:50;3.97;;;2.70;;
48034;SDS011;33812;46.480;6.834;2023-06-14T22:07:34;8.32;;;3.05;;
48034;SDS011;33812;46.480;6.834;2023-06-14T22:11:35;7.18;;;3.38;;
48034;SDS011;33812;46.480;6.834;2023-06-14T22:15:38;7.22;;;2.65;;
48034;SDS011;33812;46.480;6.834;2023-06-14T22:19:40;6.43;;;3.33;;
48034;SDS011;33812;46.480;6.834;2023-06-14T22:23:44;8.05;;;2.90;;
48034;SDS011;33812;46.480;6.834;2023-06-14T22:27:45;3.72;;;2.60;;
48034;SDS011;33812;46.480;6.834;2023-06-14T22:31:47;3.95;;;3.15;;
48034;SDS011;33812;46.480;6.834;2023-06-14T22:35:49;3.50;;;2.45;;
48034;SDS011;33812;46.480;6.834;2023-06-14T22:39:53;3.97;;;2.70;;
48034;SDS011;33812;46.480;6.834;2023-06-14T22:43:54;4.15;;;2.75;;
48034;SDS011;33812;46.480;6.834;2023-06-14T22:47:56;7.43;;;3.25;;
48034;SDS011;33812;46.480;6.834;2023-06-14T22:51:58;5.50;;;2.90;;
48034;SDS011;33812;46.480;6.834;2023-06-14T22:56:03;3.53;;;2.80;;
48034;SDS011;33812;46.480;6.834;2023-06-14T23:00:05;5.13;;;3.13;;
48034;SDS011;33812;46.480;6.834;2023-06-14T23:04:11;6.70;;;2.70;;
48034;SDS011;33812;46.480;6.834;2023-06-14T23:08:13;5.43;;;3.00;;
48034;SDS011;33812;46.480;6.834;2023-06-14T23:12:16;4.93;;;3.38;;
48034;SDS011;33812;46.480;6.834;2023-06-14T23:16:18;3.63;;;2.95;;
48034;SDS011;33812;46.480;6.834;2023-06-14T23:20:21;4.40;;;2.95;;
48034;SDS011;33812;46.480;6.834;2023-06-14T23:24:22;8.88;;;2.80;;
48034;SDS011;33812;46.480;6.834;2023-06-14T23:28:26;6.30;;;3.35;;
48034;SDS011;33812;46.480;6.834;2023-06-14T23:32:33;6.55;;;3.38;;
48034;SDS011;33812;46.480;6.834;2023-06-14T23:36:35;5.75;;;2.85;;
48034;SDS011;33812;46.480;6.834;2023-06-14T23:40:36;5.07;;;2.50;;
48034;SDS011;33812;46.480;6.834;2023-06-14T23:44:39;3.55;;;2.78;;
48034;SDS011;33812;46.480;6.834;2023-06-14T23:48:42;6.72;;;2.47;;
48034;SDS011;33812;46.480;6.834;2023-06-14T23:52:44;5.63;;;2.97;;
48034;SDS011;33812;46.480;6.834;2023-06-14T23:56:45;3.13;;;2.50;;
